• Join FlightAware (Why Join?)
  • Login
  • US Flag GB Flag 
13:11 EST


 

Airport Tracker/Info


-or-


 

Live Flight TrackerFlight Track Log ✈ SWA1044 ✈ 20-Apr-2013 ✈ KBDL - KBWI

Flight Track Log - Related Links

Times and Time Zones

All times are in EDT time to prevent confusion due to time zone crossing. See the SWA1044 flight status page for this flight to view local times or setup timezone preferences in your user account.

Time Position Orientation Groundspeed Altitude Reporting Facility
EDT Latitude Longitude Course Direction KTS MPH feet Rate Location/Type
18:10 41.9519 -72.7108 302° West 128 147 1,900  Level Boston Center
18:10 41.9789 -72.7472 315° West 163 188 3,500 2,700 Climbing Boston Center
18:11 42.0081 -72.8144 300° West 188 216 6,600 3,780 Climbing Boston Center
18:12 41.9869 -72.9008 252° West 199 229 11,100 3,300 Climbing Boston Center
18:13 41.9697 -72.9900 255° West 244 281 13,200 3,180 Climbing Boston Center
18:14 41.9483 -73.1128 257° West 292 336 17,500 3,300 Climbing Boston Center
18:15 41.9225 -73.2186 252° West 318 366 19,800 2,220 Climbing Boston Center
18:16 41.8925 -73.3297 250° West 325 374 22,000 2,160 Climbing Boston Center
18:17 41.8128 -73.4067 216° Southwest 330 380 24,200 2,580 Climbing Boston Center
18:18 41.7328 -73.4833 216° Southwest 342 394 27,200 3,420 Climbing Boston Center
18:19 41.6633 -73.5544 217° Southwest 334 384 31,100 3,300 Climbing Boston Center
18:20 41.6067 -73.6117 217° Southwest 299 344 33,800 840 Climbing Boston Center
18:23 41.4633 -73.7528 216° Southwest 278 320 34,000  Climbing New York Center
18:24 41.3994 -73.8161 217° Southwest 291 335 34,000  Level New York Center
18:25 41.3353 -73.8769 215° Southwest 291 335 34,000  Level New York Center
18:26 41.2711 -73.9372 215° Southwest 291 335 34,000  Level New York Center
18:27 41.2092 -74.0006 218° Southwest 291 335 34,000  Level New York Center
18:28 41.1469 -74.0611 216° Southwest 296 341 34,000  Level New York Center
18:29 41.0850 -74.1214 216° Southwest 289 333 34,000 -60 Level New York Center
18:30 41.0186 -74.1811 214° Southwest 289 333 33,900 -600 Descending New York Center
18:31 40.9522 -74.2411 214° Southwest 295 339 32,800 -1,020 Descending New York Center
18:32 40.8878 -74.3064 217° Southwest 295 339 31,900 -1,020 Descending New York Center
18:33 40.8236 -74.3689 216° Southwest 295 339 30,900 -1,020 Descending New York Center
18:34 40.7628 -74.4450 223° Southwest 295 339 29,900 -1,020 Descending New York Center
18:35 40.7122 -74.5328 233° Southwest 301 346 28,900 -960 Descending New York Center
18:36 40.6550 -74.6225 230° Southwest 313 360 28,000 -480 Descending New York Center
18:37 40.5978 -74.7178 232° Southwest 329 379 28,000 -180 Level New York Center
18:38 40.5406 -74.8044 229° Southwest 329 379 27,700 -600 Descending New York Center
18:39 40.4750 -74.8961 227° Southwest 339 390 26,800 -1,080 Descending New York Center
18:40 40.4047 -74.9928 226° Southwest 351 404 25,600 -1,440 Descending New York Center
18:41 40.3367 -75.0894 227° Southwest 358 412 24,000 -1,620 Descending New York Center
18:42 40.2664 -75.1883 227° Southwest 363 418 22,400 -1,620 Descending New York Center
18:43 40.2003 -75.2847 228° Southwest 363 418 20,800 -1,680 Descending New York Center
18:44 40.1319 -75.3781 226° Southwest 363 418 19,100 -1,440 Descending New York Center
18:45 40.0525 -75.4867 226° Southwest 368 423 18,000 -600 Descending New York Center
18:46 39.9908 -75.5719 227° Southwest 362 417 18,000 -540 Level New York Center
18:47 39.9197 -75.6753 228° Southwest 354 407 17,000 -1,020 Descending New York Center
18:48 39.8722 -75.7639 235° Southwest 354 407 16,100 -660 Descending New York Center
18:50 39.7667 -75.9667 236° Southwest 331 381 15,100 -1,380 Descending Potomac TRACON
18:51 39.7000 -76.0667 229° Southwest 332 382 12,100 -1,620 Descending Potomac TRACON
18:52 39.6333 -76.1500 224° Southwest 343 395 11,900 -720 Descending Potomac TRACON
18:53 39.5667 -76.2167 218° Southwest 294 338 10,700 -1,200 Descending Potomac TRACON
18:54 39.5167 -76.2833 226° Southwest 263 303 9,500 -1,200 Descending Potomac TRACON
18:55 39.4500 -76.3333 210° Southwest 258 297 8,400 -1,020 Descending Potomac TRACON
18:56 39.4000 -76.4000 226° Southwest 265 305 7,500 -1,200 Descending Potomac TRACON
18:57 39.3333 -76.4333 201° Southwest 274 315 6,000 -1,260 Descending Potomac TRACON
18:58 39.2667 -76.4000 159° South 271 312 5,000 -1,020 Descending Potomac TRACON
19:00 39.1167 -76.4167 185° South 261 300 3,000 -720 Descending Potomac TRACON
19:01 39.0833 -76.4667 229° Southwest 219 252 3,000 -60 Level Potomac TRACON
19:02 39.0667 -76.5333 252° West 204 235 2,900 -540 Descending Potomac TRACON
19:04 39.1167 -76.6167 308° West 128 147 1,500 -720 Descending Potomac TRACON
19:06 39.1667 -76.6667 270° West  Level FlightAware Approximate
19:13 39.1754 -76.6683 270° West  Level Estimated
19:14 39.1754 -76.6683 270° West  Level Estimated
19:15 39.1754 -76.6683 270° West  Level Estimated